createdAt,value
2022-12-11T00:00:15.340Z,0.59
2022-12-11T00:01:16.545Z,0.61
2022-12-11T00:02:16.894Z,0.52
2022-12-11T00:03:22.001Z,0.51
2022-12-11T00:04:18.355Z,0.51
2022-12-11T00:05:19.154Z,0.56
2022-12-11T00:06:19.640Z,0.61
2022-12-11T00:07:19.255Z,0.61
2022-12-11T00:08:21.158Z,0.61
2022-12-11T00:09:21.411Z,0.66
2022-12-11T00:10:21.611Z,0.63
2022-12-11T00:11:22.625Z,0.49
2022-12-11T00:12:23.250Z,0.52
2022-12-11T00:13:24.455Z,0.48
2022-12-11T00:14:25.083Z,0.51
2022-12-11T00:15:26.037Z,0.61
2022-12-11T00:16:32.624Z,0.59
2022-12-11T00:17:26.732Z,0.61
2022-12-11T00:18:27.921Z,0.51
2022-12-11T00:19:28.104Z,0.45
2022-12-11T00:20:28.324Z,0.45
2022-12-11T00:21:28.943Z,0.48
2022-12-11T00:22:30.149Z,0.44
2022-12-11T00:23:30.662Z,0.39
2022-12-11T00:24:30.559Z,0.44
2022-12-11T00:25:31.270Z,0.34
2022-12-11T00:26:31.753Z,0.45
2022-12-11T00:27:31.665Z,0.29
2022-12-11T00:28:32.866Z,0.45
2022-12-11T00:29:33.770Z,0.24
2022-12-11T00:30:33.677Z,0.26
2022-12-11T00:31:34.746Z,0.45
2022-12-11T00:32:39.087Z,0.39
2022-12-11T00:33:36.276Z,0.36
2022-12-11T00:34:36.874Z,0.31
2022-12-11T00:35:37.204Z,0.3
2022-12-11T00:36:38.112Z,0.26
2022-12-11T00:37:38.841Z,0.4
2022-12-11T00:38:38.822Z,0.26
2022-12-11T00:39:39.698Z,0.26
2022-12-11T00:40:40.582Z,0.31
2022-12-11T00:41:41.480Z,0.27
2022-12-11T00:42:42.374Z,0.26
2022-12-11T00:43:43.285Z,0.18
2022-12-11T00:44:44.239Z,0.2
2022-12-11T00:45:45.117Z,0.2
2022-12-11T00:46:45.543Z,0.24
2022-12-11T00:47:45.449Z,0.31
2022-12-11T00:48:46.372Z,0.19
2022-12-11T00:49:51.128Z,0.29
2022-12-11T00:50:47.640Z,0.26
2022-12-11T00:51:47.844Z,0.31
2022-12-11T00:52:48.744Z,0.31
2022-12-11T00:53:49.680Z,0.24
2022-12-11T00:54:49.584Z,0.26
2022-12-11T00:55:50.090Z,0.19
2022-12-11T00:56:51.326Z,0.18
2022-12-11T00:57:51.532Z,0.2
2022-12-11T00:58:51.155Z,0.19
2022-12-11T00:59:52.790Z,0.23
2022-12-11T01:00:53.587Z,0.16
2022-12-11T01:01:54.385Z,0.19
2022-12-11T01:02:54.121Z,0.23
2022-12-11T01:03:55.172Z,0.16
2022-12-11T01:04:55.086Z,0.23
2022-12-11T01:05:56.402Z,0.18
2022-12-11T01:06:57.292Z,0.23
2022-12-11T01:07:57.933Z,0.15
2022-12-11T01:08:58.048Z,0.18
2022-12-11T01:09:58.946Z,0.13
2022-12-11T01:10:59.710Z,0.18
2022-12-11T01:12:00.602Z,0.18
2022-12-11T01:13:01.494Z,0.16
2022-12-11T01:14:01.381Z,0.12
2022-12-11T01:15:02.583Z,0.18
2022-12-11T01:16:02.924Z,0.08
2022-12-11T01:17:04.314Z,0.16
2022-12-11T01:18:04.278Z,0.11
2022-12-11T01:19:05.194Z,0.16
2022-12-11T01:20:06.382Z,0.15
2022-12-11T01:21:06.610Z,0.2
2022-12-11T01:22:07.235Z,0.18
2022-12-11T01:23:07.431Z,0.19
2022-12-11T01:24:07.950Z,0.19
2022-12-11T01:25:08.748Z,0.19
2022-12-11T01:26:08.480Z,0.18
2022-12-11T01:27:08.670Z,0.16
2022-12-11T01:28:09.850Z,0.15
2022-12-11T01:29:10.762Z,0.19
2022-12-11T01:30:11.266Z,0.15
2022-12-11T01:31:11.289Z,0.13
2022-12-11T01:32:11.380Z,0.09
2022-12-11T01:33:12.294Z,0.15
2022-12-11T01:34:12.607Z,0.06
2022-12-11T01:35:13.951Z,0.06
2022-12-11T01:36:14.520Z,0.15
2022-12-11T01:37:15.434Z,0.08
2022-12-11T01:38:16.046Z,0.12
2022-12-11T01:39:16.001Z,0.02
2022-12-11T01:40:17.175Z,0.11
2022-12-11T01:41:17.497Z,0.02
2022-12-11T01:42:18.400Z,0.06
2022-12-11T01:43:18.885Z,0.06
2022-12-11T01:44:18.798Z,0.05
2022-12-11T01:45:20.023Z,0.05
2022-12-11T01:46:20.087Z,0.02
2022-12-11T01:47:21.175Z,0.09
2022-12-11T01:48:22.065Z,0.12
2022-12-11T01:49:22.375Z,0.12
2022-12-11T01:50:22.761Z,0.13
2022-12-11T01:51:22.410Z,0.12
2022-12-11T01:52:23.319Z,0.12
2022-12-11T01:53:24.226Z,0.13
2022-12-11T01:54:24.434Z,0.19
2022-12-11T01:55:25.615Z,0.2
2022-12-11T01:56:25.630Z,0.23
2022-12-11T01:57:26.245Z,0.19
2022-12-11T01:58:27.155Z,0.19
2022-12-11T01:59:27.649Z,0.2
2022-12-11T02:00:27.575Z,0.23
2022-12-11T02:01:28.472Z,0.13
2022-12-11T02:02:29.739Z,0.19
2022-12-11T02:03:30.076Z,0.13
2022-12-11T02:04:30.713Z,0.19
2022-12-11T02:05:31.620Z,0.18
2022-12-11T02:06:32.626Z,0.23
2022-12-11T02:07:33.109Z,0.13
2022-12-11T02:08:33.384Z,0.15
2022-12-11T02:09:33.746Z,0.15
2022-12-11T02:10:34.936Z,0.15
2022-12-11T02:11:35.550Z,0.23
2022-12-11T02:12:36.742Z,0.18
2022-12-11T02:13:36.654Z,0.16
2022-12-11T02:14:37.849Z,0.2
2022-12-11T02:15:38.766Z,0.2
2022-12-11T02:16:39.003Z,0.24
2022-12-11T02:17:39.983Z,0.2
2022-12-11T02:18:40.895Z,0.19
2022-12-11T02:19:41.506Z,0.2
2022-12-11T02:20:42.146Z,0.2
2022-12-11T02:21:43.065Z,0.19
2022-12-11T02:22:43.551Z,0.2
2022-12-11T02:23:44.459Z,0.15
2022-12-11T02:24:44.665Z,0.11
2022-12-11T02:25:44.872Z,0.11
2022-12-11T02:26:45.138Z,0.16
2022-12-11T02:27:45.177Z,0.16
2022-12-11T02:28:46.096Z,0.18
2022-12-11T02:29:46.997Z,0.18
2022-12-11T02:30:47.625Z,0.16
2022-12-11T02:31:48.063Z,0.11
2022-12-11T02:32:48.658Z,0.12
2022-12-11T02:33:49.570Z,0.06
2022-12-11T02:34:49.488Z,0.06
2022-12-11T02:35:50.371Z,0.06
2022-12-11T02:36:50.718Z,0.08
2022-12-11T02:37:51.633Z,-0.05
2022-12-11T02:38:52.533Z,0.05
2022-12-11T02:39:53.785Z,-0.02
2022-12-11T02:40:53.578Z,0.01
2022-12-11T02:41:54.772Z,-0.05
2022-12-11T02:42:55.666Z,-0.06
2022-12-11T02:43:55.854Z,0.01
2022-12-11T02:44:56.464Z,0.05
2022-12-11T02:45:57.207Z,-0.09
2022-12-11T02:46:57.270Z,0.01
2022-12-11T02:47:58.485Z,-0.03
2022-12-11T02:48:58.094Z,0
2022-12-11T02:49:58.708Z,-0.12
2022-12-11T02:50:59.791Z,-0.02
2022-12-11T02:52:00.999Z,0.01
2022-12-11T02:53:01.203Z,-0.03
2022-12-11T02:54:02.395Z,0.02
2022-12-11T02:55:02.605Z,-0.03
2022-12-11T02:56:02.784Z,-0.06
2022-12-11T02:57:04.072Z,-0.09
2022-12-11T02:58:04.687Z,-0.03
2022-12-11T02:59:04.623Z,0.02
2022-12-11T03:00:04.935Z,-0.03
2022-12-11T03:01:06.098Z,0.05
2022-12-11T03:02:06.009Z,0
2022-12-11T03:03:06.428Z,0
2022-12-11T03:04:07.320Z,0.01
2022-12-11T03:05:07.693Z,0.06
2022-12-11T03:06:08.549Z,0.01
2022-12-11T03:07:09.285Z,0.06
2022-12-11T03:08:10.067Z,0.08
2022-12-11T03:09:11.404Z,0.05
2022-12-11T03:10:11.372Z,0.06
2022-12-11T03:11:12.313Z,0.08
2022-12-11T03:12:12.520Z,0.08
2022-12-11T03:13:12.721Z,0.11
2022-12-11T03:14:12.631Z,0.05
2022-12-11T03:15:14.186Z,-0.06
2022-12-11T03:16:14.682Z,0.02
2022-12-11T03:17:14.863Z,-0.03
2022-12-11T03:18:16.070Z,-0.1
2022-12-11T03:19:15.691Z,-0.15
2022-12-11T03:20:16.298Z,-0.13
2022-12-11T03:21:17.484Z,-0.13
2022-12-11T03:22:18.006Z,-0.07
2022-12-11T03:23:17.637Z,-0.15
2022-12-11T03:24:18.845Z,-0.2
2022-12-11T03:25:19.928Z,-0.24
2022-12-11T03:26:20.829Z,-0.3
2022-12-11T03:27:21.521Z,-0.21
2022-12-11T03:28:21.731Z,-0.18
2022-12-11T03:29:21.639Z,-0.24
2022-12-11T03:30:22.564Z,-0.24
2022-12-11T03:31:23.660Z,-0.23
2022-12-11T03:32:24.552Z,-0.26
2022-12-11T03:33:24.464Z,-0.24
2022-12-11T03:34:25.083Z,-0.24
2022-12-11T03:35:26.274Z,-0.21
2022-12-11T03:36:27.481Z,-0.26
2022-12-11T03:37:27.802Z,-0.23
2022-12-11T03:38:28.281Z,-0.26
2022-12-11T03:39:28.176Z,-0.23
2022-12-11T03:40:29.108Z,-0.3
2022-12-11T03:41:29.508Z,-0.28
2022-12-11T03:42:29.716Z,-0.28
2022-12-11T03:43:30.632Z,-0.24
2022-12-11T03:44:30.833Z,-0.33
2022-12-11T03:45:31.444Z,-0.38
2022-12-11T03:46:31.993Z,-0.42
2022-12-11T03:47:31.838Z,-0.42
2022-12-11T03:48:32.341Z,-0.41
2022-12-11T03:49:32.953Z,-0.44
2022-12-11T03:50:33.159Z,-0.46
2022-12-11T03:51:34.190Z,-0.48
2022-12-11T03:52:34.115Z,-0.44
2022-12-11T03:53:35.274Z,-0.39
2022-12-11T03:54:36.481Z,-0.39
2022-12-11T03:55:36.435Z,-0.41
2022-12-11T03:56:37.056Z,-0.38
2022-12-11T03:57:37.284Z,-0.36
2022-12-11T03:58:37.874Z,-0.38
2022-12-11T03:59:38.360Z,-0.35
2022-12-11T04:00:38.842Z,-0.38
2022-12-11T04:01:38.993Z,-0.26
2022-12-11T04:02:39.099Z,-0.26
2022-12-11T04:03:39.446Z,-0.27
2022-12-11T04:04:40.362Z,-0.26
2022-12-11T04:05:41.552Z,-0.28
2022-12-11T04:06:42.144Z,-0.3
2022-12-11T04:07:43.575Z,-0.27
2022-12-11T04:08:43.785Z,-0.24
2022-12-11T04:09:44.719Z,-0.23
2022-12-11T04:10:45.675Z,-0.26
2022-12-11T04:11:46.872Z,-0.27
2022-12-11T04:12:47.059Z,-0.23
2022-12-11T04:13:47.248Z,-0.28
2022-12-11T04:14:48.134Z,-0.17
2022-12-11T04:15:49.388Z,-0.12
2022-12-11T04:16:48.905Z,-0.15
2022-12-11T04:17:50.214Z,-0.13
2022-12-11T04:18:50.416Z,-0.02
2022-12-11T04:19:50.608Z,0.05
2022-12-11T04:20:51.223Z,-0.02
2022-12-11T04:21:51.837Z,-0.05
2022-12-11T04:22:52.084Z,-0.03
2022-12-11T04:23:52.682Z,0.01
2022-12-11T04:24:53.167Z,0
2022-12-11T04:25:53.383Z,0
2022-12-11T04:26:53.859Z,-0.06
2022-12-11T04:27:54.564Z,-0.02
2022-12-11T04:28:54.463Z,-0.07
2022-12-11T04:29:55.374Z,-0.06
2022-12-11T04:30:55.744Z,-0.12
2022-12-11T04:31:56.136Z,-0.03
2022-12-11T04:32:56.053Z,0.02
2022-12-11T04:33:57.258Z,-0.03
2022-12-11T04:34:57.141Z,0.05
2022-12-11T04:35:57.725Z,-0.02
2022-12-11T04:36:57.910Z,-0.02
2022-12-11T04:37:58.320Z,-0.07
2022-12-11T04:38:58.525Z,-0.13
2022-12-11T04:39:58.410Z,-0.03
2022-12-11T04:40:59.452Z,-0.17
2022-12-11T04:42:00.348Z,-0.06
2022-12-11T04:43:00.537Z,-0.15
2022-12-11T04:44:01.773Z,-0.3
2022-12-11T04:45:02.363Z,-0.17
2022-12-11T04:46:02.553Z,-0.23
2022-12-11T04:47:03.326Z,-0.27
2022-12-11T04:48:03.586Z,-0.18
2022-12-11T04:49:04.500Z,-0.24
2022-12-11T04:50:05.434Z,-0.26
2022-12-11T04:51:06.038Z,-0.24
2022-12-11T04:52:06.515Z,-0.27
2022-12-11T04:53:07.031Z,-0.26
2022-12-11T04:54:07.371Z,-0.21
2022-12-11T04:55:08.662Z,-0.35
2022-12-11T04:56:09.323Z,-0.39
2022-12-11T04:57:08.947Z,-0.41
2022-12-11T04:58:09.938Z,-0.36
2022-12-11T04:59:10.250Z,-0.38
2022-12-11T05:00:10.887Z,-0.36
2022-12-11T05:01:11.892Z,-0.41
2022-12-11T05:02:12.171Z,-0.33
2022-12-11T05:03:12.673Z,-0.38
2022-12-11T05:04:13.879Z,-0.44
2022-12-11T05:05:14.653Z,-0.41
2022-12-11T05:06:14.327Z,-0.41
2022-12-11T05:07:15.216Z,-0.38
2022-12-11T05:08:16.922Z,-0.45
2022-12-11T05:09:16.394Z,-0.36
2022-12-11T05:10:17.286Z,-0.42
2022-12-11T05:11:18.230Z,-0.36
2022-12-11T05:12:18.519Z,-0.35
2022-12-11T05:13:19.145Z,-0.44
2022-12-11T05:14:19.782Z,-0.38
2022-12-11T05:15:20.673Z,-0.45
2022-12-11T05:16:21.010Z,-0.42
2022-12-11T05:17:21.373Z,-0.38
2022-12-11T05:18:21.752Z,-0.39
2022-12-11T05:19:21.948Z,-0.49
2022-12-11T05:20:21.873Z,-0.41
2022-12-11T05:21:22.825Z,-0.53
2022-12-11T05:22:23.035Z,-0.49
2022-12-11T05:23:23.254Z,-0.53
2022-12-11T05:24:24.445Z,-0.48
2022-12-11T05:25:24.361Z,-0.51
2022-12-11T05:26:25.271Z,-0.62
2022-12-11T05:27:26.172Z,-0.63
2022-12-11T05:28:26.881Z,-0.53
2022-12-11T05:29:27.071Z,-0.59
2022-12-11T05:30:27.551Z,-0.59
2022-12-11T05:31:28.349Z,-0.6
2022-12-11T05:32:29.167Z,-0.56
2022-12-11T05:33:29.533Z,-0.51
2022-12-11T05:34:30.453Z,-0.54
2022-12-11T05:35:30.939Z,-0.59
2022-12-11T05:36:30.869Z,-0.66
2022-12-11T05:37:31.183Z,-0.57
2022-12-11T05:38:31.855Z,-0.48
2022-12-11T05:39:32.467Z,-0.46
2022-12-11T05:40:33.073Z,-0.54
2022-12-11T05:41:33.716Z,-0.45
2022-12-11T05:42:35.199Z,-0.45
2022-12-11T05:43:34.833Z,-0.45
2022-12-11T05:44:35.738Z,-0.42
2022-12-11T05:45:36.369Z,-0.42
2022-12-11T05:46:36.389Z,-0.44
2022-12-11T05:47:37.192Z,-0.45
2022-12-11T05:48:38.189Z,-0.39
2022-12-11T05:49:38.381Z,-0.49
2022-12-11T05:50:38.568Z,-0.49
2022-12-11T05:51:38.896Z,-0.44
2022-12-11T05:52:39.358Z,-0.39
2022-12-11T05:53:40.283Z,-0.48
2022-12-11T05:54:40.899Z,-0.38
2022-12-11T05:55:42.107Z,-0.39
2022-12-11T05:56:42.555Z,-0.33
2022-12-11T05:57:42.734Z,-0.35
2022-12-11T05:58:43.321Z,-0.36
2022-12-11T05:59:44.235Z,-0.44
2022-12-11T06:00:44.569Z,-0.42
2022-12-11T06:01:45.753Z,-0.45
2022-12-11T06:02:46.446Z,-0.45
2022-12-11T06:03:47.029Z,-0.49
2022-12-11T06:04:47.575Z,-0.45
2022-12-11T06:05:47.473Z,-0.41
2022-12-11T06:06:47.655Z,-0.56
2022-12-11T06:07:48.674Z,-0.46
2022-12-11T06:08:49.107Z,-0.57
2022-12-11T06:09:50.015Z,-0.53
2022-12-11T06:10:49.920Z,-0.56
2022-12-11T06:11:51.150Z,-0.69
2022-12-11T06:12:52.349Z,-0.64
2022-12-11T06:13:53.000Z,-0.64
2022-12-11T06:14:54.195Z,-0.62
2022-12-11T06:15:54.400Z,-0.66
2022-12-11T06:16:54.818Z,-0.62
2022-12-11T06:17:55.747Z,-0.62
2022-12-11T06:18:58.916Z,-0.53
2022-12-11T06:19:56.816Z,-0.69
2022-12-11T06:20:58.024Z,-0.67
2022-12-11T06:21:58.939Z,-0.72
2022-12-11T06:22:59.281Z,-0.64
2022-12-11T06:24:00.237Z,-0.57
2022-12-11T06:25:01.152Z,-0.66
2022-12-11T06:26:02.199Z,-0.64
2022-12-11T06:27:03.137Z,-0.64
2022-12-11T06:28:04.040Z,-0.74
2022-12-11T06:29:12.874Z,-0.66
2022-12-11T06:30:04.787Z,-0.67
2022-12-11T06:31:06.272Z,-0.67
2022-12-11T06:32:06.811Z,-0.64
2022-12-11T06:33:06.777Z,-0.64
2022-12-11T06:34:07.704Z,-0.67
2022-12-11T06:35:09.408Z,-0.67
2022-12-11T06:36:09.742Z,-0.6
2022-12-11T06:37:10.360Z,-0.66
2022-12-11T06:38:11.274Z,-0.63
2022-12-11T06:39:12.331Z,-0.63
2022-12-11T06:40:12.519Z,-0.75
2022-12-11T06:41:13.720Z,-0.72
2022-12-11T06:42:13.678Z,-0.7
2022-12-11T06:43:14.580Z,-0.67
2022-12-11T06:44:15.492Z,-0.67
2022-12-11T06:45:17.138Z,-0.6
2022-12-11T06:46:17.374Z,-0.69
2022-12-11T06:47:17.182Z,-0.64
2022-12-11T06:48:18.383Z,-0.69
2022-12-11T06:49:18.090Z,-0.56
2022-12-11T06:50:19.309Z,-0.64
2022-12-11T06:51:19.233Z,-0.64
2022-12-11T06:52:24.529Z,-0.67
2022-12-11T06:53:20.722Z,-0.59
2022-12-11T06:54:21.242Z,-0.54
2022-12-11T06:55:22.196Z,-0.66
2022-12-11T06:56:22.109Z,-0.66
2022-12-11T06:57:23.042Z,-0.72
2022-12-11T06:58:24.239Z,-0.7
2022-12-11T06:59:24.445Z,-0.7
2022-12-11T07:00:25.635Z,-0.84
2022-12-11T07:01:26.228Z,-0.8
2022-12-11T07:02:26.472Z,-0.84
2022-12-11T07:03:26.261Z,-0.96
2022-12-11T07:04:26.867Z,-0.84
2022-12-11T07:05:28.089Z,-0.99
2022-12-11T07:06:27.719Z,-0.89
2022-12-11T07:07:28.626Z,-0.96
2022-12-11T07:08:29.590Z,-0.89
2022-12-11T07:09:30.216Z,-0.96
2022-12-11T07:10:30.239Z,-0.96
2022-12-11T07:11:31.145Z,-0.99
2022-12-11T07:12:32.421Z,-0.96
2022-12-11T07:13:32.323Z,-0.93
2022-12-11T07:14:33.511Z,-0.94
2022-12-11T07:15:40.694Z,-0.85
2022-12-11T07:16:35.419Z,-0.91
2022-12-11T07:17:35.573Z,-0.94
2022-12-11T07:18:35.514Z,-0.89
2022-12-11T07:19:36.279Z,-0.93
2022-12-11T07:20:36.914Z,-0.85
2022-12-11T07:21:37.568Z,-0.8
2022-12-11T07:22:46.734Z,-0.81
2022-12-11T07:23:39.051Z,-0.8
2022-12-11T07:24:39.294Z,-0.7
2022-12-11T07:25:39.907Z,-0.78
2022-12-11T07:26:40.799Z,-0.69
2022-12-11T07:27:42.038Z,-0.75
2022-12-11T07:28:42.244Z,-0.69
2022-12-11T07:29:42.676Z,-0.63
2022-12-11T07:30:43.300Z,-0.62
2022-12-11T07:31:44.335Z,-0.57
2022-12-11T07:32:44.700Z,-0.66
2022-12-11T07:33:45.152Z,-0.62
2022-12-11T07:34:52.281Z,-0.63
2022-12-11T07:35:45.601Z,-0.56
2022-12-11T07:36:46.082Z,-0.53
2022-12-11T07:37:45.720Z,-0.44
2022-12-11T07:38:46.927Z,-0.44
2022-12-11T07:39:46.960Z,-0.51
2022-12-11T07:40:47.874Z,-0.45
2022-12-11T07:41:48.491Z,-0.41
2022-12-11T07:42:52.341Z,-0.41
2022-12-11T07:43:49.527Z,-0.44
2022-12-11T07:44:50.440Z,-0.41
2022-12-11T07:45:51.464Z,-0.49
2022-12-11T07:46:51.800Z,-0.51
2022-12-11T07:47:52.138Z,-0.49
2022-12-11T07:48:53.372Z,-0.57
2022-12-11T07:49:53.529Z,-0.64
2022-12-11T07:50:54.070Z,-0.53
2022-12-11T07:51:54.260Z,-0.72
2022-12-11T07:52:54.450Z,-0.6
2022-12-11T07:53:55.272Z,-0.64
2022-12-11T07:54:56.864Z,-0.64
2022-12-11T07:55:57.487Z,-0.56
2022-12-11T07:56:59.763Z,-0.54
2022-12-11T07:57:58.889Z,-0.46
2022-12-11T07:59:00.088Z,-0.53
2022-12-11T08:00:00.423Z,-0.46
2022-12-11T08:01:01.565Z,-0.49
2022-12-11T08:02:01.493Z,-0.45
2022-12-11T08:03:02.942Z,-0.42
2022-12-11T08:04:03.156Z,-0.45
2022-12-11T08:05:02.769Z,-0.39
2022-12-11T08:06:04.405Z,-0.28
2022-12-11T08:07:05.222Z,-0.3
2022-12-11T08:08:05.555Z,-0.21
2022-12-11T08:09:05.777Z,-0.24
2022-12-11T08:10:06.939Z,-0.23
2022-12-11T08:11:06.853Z,-0.21
2022-12-11T08:12:07.475Z,-0.24
2022-12-11T08:13:08.482Z,-0.2
2022-12-11T08:14:08.677Z,-0.21
2022-12-11T08:15:10.594Z,-0.26
2022-12-11T08:16:09.980Z,-0.1
2022-12-11T08:17:10.380Z,-0.17
2022-12-11T08:18:10.662Z,-0.1
2022-12-11T08:19:10.622Z,-0.15
2022-12-11T08:20:11.211Z,-0.05
2022-12-11T08:21:11.703Z,-0.13
2022-12-11T08:22:12.200Z,-0.15
2022-12-11T08:23:12.520Z,-0.12
2022-12-11T08:24:13.412Z,-0.13
2022-12-11T08:25:14.970Z,-0.09
2022-12-11T08:26:14.893Z,-0.17
2022-12-11T08:27:16.376Z,-0.12
2022-12-11T08:28:16.647Z,-0.09
2022-12-11T08:29:17.123Z,-0.02
2022-12-11T08:30:17.826Z,-0.13
2022-12-11T08:31:18.069Z,-0.15
2022-12-11T08:32:18.387Z,-0.09
2022-12-11T08:33:19.284Z,-0.02
2022-12-11T08:34:19.206Z,0.01
2022-12-11T08:35:19.548Z,0.01
2022-12-11T08:36:20.771Z,0.05
2022-12-11T08:37:21.388Z,0.06
2022-12-11T08:38:27.887Z,0.08
2022-12-11T08:39:21.803Z,0.01
2022-12-11T08:40:22.814Z,0.06
2022-12-11T08:41:23.439Z,0.05
2022-12-11T08:42:24.334Z,0.06
2022-12-11T08:43:30.951Z,0.15
2022-12-11T08:44:26.356Z,0.13
2022-12-11T08:45:26.988Z,0.13
2022-12-11T08:46:27.402Z,0.2
2022-12-11T08:47:27.467Z,0.19
2022-12-11T08:48:28.108Z,0.2
2022-12-11T08:49:34.901Z,0.29
2022-12-11T08:50:29.446Z,0.23
2022-12-11T08:51:29.669Z,0.2
2022-12-11T08:52:30.589Z,0.27
2022-12-11T08:53:30.504Z,0.23
2022-12-11T08:54:31.118Z,0.33
2022-12-11T08:55:31.082Z,0.29
2022-12-11T08:56:31.738Z,0.33
2022-12-11T08:57:32.655Z,0.3
2022-12-11T08:58:33.841Z,0.42
2022-12-11T08:59:34.499Z,0.45
2022-12-11T09:00:35.511Z,0.49
2022-12-11T09:01:36.627Z,0.56
2022-12-11T09:02:37.232Z,0.56
2022-12-11T09:03:37.498Z,0.42
2022-12-11T09:04:38.005Z,0.49
2022-12-11T09:05:37.916Z,0.47
2022-12-11T09:06:39.193Z,0.44
2022-12-11T09:07:39.393Z,0.48
2022-12-11T09:08:39.723Z,0.45
2022-12-11T09:09:40.199Z,0.52
2022-12-11T09:10:40.650Z,0.47
2022-12-11T09:11:41.870Z,0.51
2022-12-11T09:12:42.073Z,0.58
2022-12-11T09:13:42.715Z,0.66
2022-12-11T09:15:15.608Z,0.63
2022-12-11T09:15:44.951Z,0.61
2022-12-11T09:16:44.703Z,0.66
2022-12-11T09:17:45.895Z,0.71
2022-12-11T09:18:46.817Z,0.76
2022-12-11T09:19:47.448Z,0.67
2022-12-11T09:20:47.163Z,0.73
2022-12-11T09:21:48.100Z,0.78
2022-12-11T09:22:48.720Z,0.76
2022-12-11T09:23:49.935Z,0.84
2022-12-11T09:24:49.845Z,0.84
2022-12-11T09:25:51.335Z,0.84
2022-12-11T09:26:51.575Z,0.86
2022-12-11T09:27:52.479Z,0.85
2022-12-11T09:28:53.124Z,0.84
2022-12-11T09:29:53.040Z,0.86
2022-12-11T09:30:53.354Z,0.89
2022-12-11T09:31:53.134Z,0.82
2022-12-11T09:32:54.051Z,0.91
2022-12-11T09:33:54.673Z,0.95
2022-12-11T09:34:55.603Z,0.95
2022-12-11T09:35:55.951Z,0.95
2022-12-11T09:36:57.172Z,1.1
2022-12-11T09:37:57.668Z,1.07
2022-12-11T09:38:58.162Z,1.21
2022-12-11T09:40:07.852Z,1.38
2022-12-11T09:40:59.739Z,1.52
2022-12-11T09:41:59.677Z,1.64
2022-12-11T09:43:00.874Z,1.82
2022-12-11T09:44:01.071Z,1.79
2022-12-11T09:45:01.268Z,1.84
2022-12-11T09:46:02.305Z,1.78
2022-12-11T09:47:02.465Z,1.85
2022-12-11T09:48:02.669Z,1.75
2022-12-11T09:49:02.900Z,1.71
2022-12-11T09:50:03.408Z,1.81
2022-12-11T09:51:04.118Z,1.82
2022-12-11T09:52:04.755Z,1.74
2022-12-11T09:53:05.940Z,1.76
2022-12-11T09:54:05.858Z,1.75
2022-12-11T09:55:06.893Z,1.74
2022-12-11T09:56:07.198Z,1.78
2022-12-11T09:57:08.124Z,1.82
2022-12-11T09:58:08.756Z,1.89
2022-12-11T09:59:08.964Z,1.86
2022-12-11T10:00:11.407Z,1.98
2022-12-11T10:01:09.650Z,2.04
2022-12-11T10:02:09.979Z,2.04
2022-12-11T10:03:10.967Z,2.05
2022-12-11T10:04:11.458Z,2.22
2022-12-11T10:05:11.973Z,2.39
2022-12-11T10:06:12.375Z,2.57
2022-12-11T10:07:12.287Z,2.76
2022-12-11T10:08:13.045Z,3.09
2022-12-11T10:09:13.729Z,2.98
2022-12-11T10:10:13.624Z,2.97
2022-12-11T10:11:14.887Z,3.15
2022-12-11T10:12:15.117Z,3.31
2022-12-11T10:13:15.606Z,3.15
2022-12-11T10:14:15.508Z,3.22
2022-12-11T10:15:16.745Z,3.13
2022-12-11T10:16:16.892Z,3.09
2022-12-11T10:17:16.932Z,3
2022-12-11T10:18:17.414Z,2.87
2022-12-11T10:19:17.909Z,3.05
2022-12-11T10:20:18.551Z,3.33
2022-12-11T10:21:18.587Z,3.48
2022-12-11T10:22:19.792Z,3.58
2022-12-11T10:23:20.708Z,3.41
2022-12-11T10:25:17.538Z,2.9
2022-12-11T10:25:35.578Z,2.88
2022-12-11T10:26:36.067Z,2.7
2022-12-11T10:27:36.589Z,2.44
2022-12-11T10:28:36.524Z,2.41
2022-12-11T10:29:37.150Z,2.44
2022-12-11T10:30:40.749Z,2.62
2022-12-11T10:31:39.188Z,2.97
2022-12-11T10:32:39.672Z,3.4
2022-12-11T10:33:39.863Z,3.71
2022-12-11T10:34:39.784Z,3.91
2022-12-11T10:35:40.722Z,3.95
2022-12-11T10:36:40.924Z,4.18
2022-12-11T10:37:41.594Z,4.24
2022-12-11T10:38:41.519Z,4.46
2022-12-11T10:39:42.713Z,4.58
2022-12-11T10:40:42.913Z,4.74
2022-12-11T10:41:43.938Z,4.61
2022-12-11T10:42:51.115Z,4.5
2022-12-11T10:43:44.438Z,4.64
2022-12-11T10:44:45.068Z,4.92
2022-12-11T10:45:46.172Z,4.83
2022-12-11T10:46:46.327Z,4.78
2022-12-11T10:47:47.345Z,4.83
2022-12-11T10:48:51.421Z,4.9
2022-12-11T10:49:49.022Z,4.82
2022-12-11T10:50:49.780Z,4.87
2022-12-11T10:51:49.938Z,4.84
2022-12-11T10:52:50.848Z,4.82
2022-12-11T10:53:51.171Z,4.83
2022-12-11T10:54:52.749Z,4.83
2022-12-11T10:55:53.888Z,5.05
2022-12-11T10:56:53.535Z,5.13
2022-12-11T10:57:53.764Z,5.07
2022-12-11T10:58:54.403Z,5.07
2022-12-11T10:59:55.028Z,4.84
2022-12-11T11:00:55.647Z,4.79
2022-12-11T11:02:01.958Z,4.61
2022-12-11T11:02:56.438Z,4.46
2022-12-11T11:03:56.524Z,4.21
2022-12-11T11:04:57.724Z,4.03
2022-12-11T11:05:57.584Z,3.88
2022-12-11T11:06:57.785Z,3.67
2022-12-11T11:07:59.190Z,3.37
2022-12-11T11:08:59.506Z,3.11
2022-12-11T11:10:00.165Z,2.97
2022-12-11T11:11:00.356Z,2.75
2022-12-11T11:12:08.321Z,2.69
2022-12-11T11:13:01.608Z,2.57
2022-12-11T11:14:01.546Z,2.59
2022-12-11T11:15:02.457Z,2.47
2022-12-11T11:16:03.306Z,2.37
2022-12-11T11:17:03.248Z,2.32
2022-12-11T11:18:03.194Z,2.1
2022-12-11T11:19:04.671Z,2.08
2022-12-11T11:20:05.433Z,2.03
2022-12-11T11:21:06.382Z,1.95
2022-12-11T11:22:07.397Z,1.85
2022-12-11T11:23:08.607Z,1.71
2022-12-11T11:24:09.229Z,1.81
2022-12-11T11:25:10.338Z,1.84
2022-12-11T11:26:10.441Z,1.76
2022-12-11T11:27:19.177Z,1.66
2022-12-11T11:28:11.931Z,1.56
2022-12-11T11:29:12.140Z,1.56
2022-12-11T11:30:13.058Z,1.4
2022-12-11T11:31:13.821Z,1.36
2022-12-11T11:32:14.774Z,1.4
2022-12-11T11:33:15.691Z,1.3
2022-12-11T11:34:16.572Z,1.13
2022-12-11T11:35:17.671Z,1.13
2022-12-11T11:36:17.597Z,1.13
2022-12-11T11:37:18.497Z,1.04
2022-12-11T11:38:18.760Z,1.16
2022-12-11T11:39:19.373Z,1.12
2022-12-11T11:40:19.679Z,1.22
2022-12-11T11:41:20.845Z,1.21
2022-12-11T11:42:21.914Z,1.34
2022-12-11T11:43:22.405Z,1.3
2022-12-11T11:44:22.329Z,1.3
2022-12-11T11:45:22.954Z,1.38
2022-12-11T11:46:23.962Z,1.38
2022-12-11T11:47:23.731Z,1.36
2022-12-11T11:48:24.375Z,1.4
2022-12-11T11:49:25.560Z,1.43
2022-12-11T11:50:25.919Z,1.5
2022-12-11T11:51:26.842Z,1.6
2022-12-11T11:52:27.804Z,1.52
2022-12-11T11:53:28.728Z,1.66
2022-12-11T11:54:28.943Z,1.74
2022-12-11T11:55:30.117Z,1.79
2022-12-11T11:56:30.332Z,1.71
2022-12-11T11:57:30.967Z,1.82
2022-12-11T11:58:31.623Z,1.82
2022-12-11T11:59:32.833Z,1.84
2022-12-11T12:00:37.606Z,1.86
2022-12-11T12:01:33.505Z,1.98
2022-12-11T12:02:34.945Z,1.97
2022-12-11T12:03:34.949Z,2.04
2022-12-11T12:04:35.320Z,2.08
2022-12-11T12:05:35.959Z,2.07
2022-12-11T12:06:36.276Z,2.05
2022-12-11T12:07:36.872Z,2.01
2022-12-11T12:08:37.154Z,2
2022-12-11T12:09:37.194Z,2.14
2022-12-11T12:10:37.585Z,2.15
2022-12-11T12:11:38.785Z,2.15
2022-12-11T12:12:40.424Z,2.18
2022-12-11T12:13:56.735Z,2.15
2022-12-11T12:14:58.302Z,2.18
2022-12-11T12:15:41.622Z,2.14
2022-12-11T12:16:59.873Z,2.07
2022-12-11T12:17:42.044Z,2.14
2022-12-11T12:18:42.189Z,2.12
2022-12-11T12:19:43.088Z,2.23
2022-12-11T12:20:43.699Z,2.25
2022-12-11T12:21:44.688Z,2.32
2022-12-11T12:22:44.986Z,2.33
2022-12-11T12:23:45.525Z,2.28
2022-12-11T12:24:45.865Z,2.41
2022-12-11T12:25:46.774Z,2.3
2022-12-11T12:26:47.756Z,2.32
2022-12-11T12:28:02.985Z,2.25
2022-12-11T12:28:48.218Z,2.25
2022-12-11T12:29:48.135Z,2.21
2022-12-11T12:30:49.344Z,2.22
2022-12-11T12:31:50.476Z,2.25
2022-12-11T12:32:50.556Z,2.25
2022-12-11T12:33:50.798Z,2.12
2022-12-11T12:34:51.713Z,2.12
2022-12-11T12:35:52.946Z,2.14
2022-12-11T12:36:53.435Z,2.23
2022-12-11T12:37:54.647Z,2.22
2022-12-11T12:38:55.588Z,2.23
2022-12-11T12:39:55.516Z,2.18
2022-12-11T12:40:56.129Z,2.25
2022-12-11T12:41:59.281Z,2.22
2022-12-11T12:42:57.713Z,2.22
2022-12-11T12:43:58.794Z,2.22
2022-12-11T12:44:59.887Z,2.15
2022-12-11T12:46:00.738Z,2.08
2022-12-11T12:47:00.344Z,2.12
2022-12-11T12:48:01.536Z,2.04
2022-12-11T12:49:01.198Z,2.05
2022-12-11T12:50:02.380Z,2.01
2022-12-11T12:51:02.297Z,1.86
2022-12-11T12:52:03.497Z,1.82
2022-12-11T12:53:03.463Z,1.74
2022-12-11T12:54:12.206Z,1.6
2022-12-11T12:55:04.687Z,1.42
2022-12-11T12:56:05.553Z,1.3
2022-12-11T12:57:05.647Z,1.21
2022-12-11T12:58:05.716Z,1.18
2022-12-11T12:59:06.356Z,1.14
2022-12-11T13:00:13.696Z,1.14
2022-12-11T13:01:08.182Z,1.07
2022-12-11T13:02:08.461Z,1.04
2022-12-11T13:03:08.344Z,1.12
2022-12-11T13:04:54.782Z,1.18
2022-12-11T13:05:13.339Z,1.13
2022-12-11T13:06:12.875Z,1.13
2022-12-11T13:07:13.801Z,1.12
2022-12-11T13:08:13.876Z,1.13
2022-12-11T13:09:13.889Z,1.18
2022-12-11T13:10:14.880Z,1.12
2022-12-11T13:11:15.495Z,1.02
2022-12-11T13:12:16.405Z,1.1
2022-12-11T13:13:17.094Z,1.12
2022-12-11T13:14:17.983Z,1.07
2022-12-11T13:15:19.007Z,1.06
2022-12-11T13:16:19.377Z,1.16
2022-12-11T13:17:19.835Z,1.16
2022-12-11T13:18:21.021Z,1.18